sensor_id;sensor_type;location;lat;lon;timestamp;P1;durP1;ratioP1;P2;durP2;ratioP2
579;SDS011;276;48.392;9.950;2023-07-22T00:01:41;9.70;;;8.50;;
579;SDS011;276;48.392;9.950;2023-07-22T00:04:09;8.63;;;7.83;;
579;SDS011;276;48.392;9.950;2023-07-22T00:06:35;7.67;;;6.97;;
579;SDS011;276;48.392;9.950;2023-07-22T00:09:00;7.27;;;6.57;;
579;SDS011;276;48.392;9.950;2023-07-22T00:11:26;6.00;;;5.23;;
579;SDS011;276;48.392;9.950;2023-07-22T00:13:52;9.50;;;8.70;;
579;SDS011;276;48.392;9.950;2023-07-22T00:16:17;6.10;;;4.50;;
579;SDS011;276;48.392;9.950;2023-07-22T00:18:43;3.77;;;3.17;;
579;SDS011;276;48.392;9.950;2023-07-22T00:21:08;2.87;;;2.67;;
579;SDS011;276;48.392;9.950;2023-07-22T00:23:34;4.83;;;3.10;;
579;SDS011;276;48.392;9.950;2023-07-22T00:26:00;5.00;;;4.00;;
579;SDS011;276;48.392;9.950;2023-07-22T00:28:26;5.40;;;4.33;;
579;SDS011;276;48.392;9.950;2023-07-22T00:30:51;3.60;;;3.30;;
579;SDS011;276;48.392;9.950;2023-07-22T00:33:18;8.20;;;7.60;;
579;SDS011;276;48.392;9.950;2023-07-22T00:35:49;8.77;;;7.97;;
579;SDS011;276;48.392;9.950;2023-07-22T00:38:18;5.93;;;5.40;;
579;SDS011;276;48.392;9.950;2023-07-22T00:40:44;11.60;;;10.50;;
579;SDS011;276;48.392;9.950;2023-07-22T00:43:10;15.43;;;13.90;;
579;SDS011;276;48.392;9.950;2023-07-22T00:45:36;10.33;;;9.43;;
579;SDS011;276;48.392;9.950;2023-07-22T00:48:02;12.63;;;11.47;;
579;SDS011;276;48.392;9.950;2023-07-22T00:50:32;7.57;;;6.73;;
579;SDS011;276;48.392;9.950;2023-07-22T00:52:58;4.50;;;3.40;;
579;SDS011;276;48.392;9.950;2023-07-22T00:55:24;4.40;;;4.00;;
579;SDS011;276;48.392;9.950;2023-07-22T00:57:50;3.90;;;3.40;;
579;SDS011;276;48.392;9.950;2023-07-22T01:00:19;5.10;;;3.30;;
579;SDS011;276;48.392;9.950;2023-07-22T01:02:44;5.40;;;2.87;;
579;SDS011;276;48.392;9.950;2023-07-22T01:05:10;8.97;;;3.50;;
579;SDS011;276;48.392;9.950;2023-07-22T01:07:37;4.43;;;3.40;;
579;SDS011;276;48.392;9.950;2023-07-22T01:10:03;5.43;;;3.33;;
579;SDS011;276;48.392;9.950;2023-07-22T01:12:30;5.33;;;3.07;;
579;SDS011;276;48.392;9.950;2023-07-22T01:14:58;4.63;;;3.20;;
579;SDS011;276;48.392;9.950;2023-07-22T01:17:25;3.93;;;3.23;;
579;SDS011;276;48.392;9.950;2023-07-22T01:19:51;3.00;;;2.70;;
579;SDS011;276;48.392;9.950;2023-07-22T01:22:17;6.33;;;4.03;;
579;SDS011;276;48.392;9.950;2023-07-22T01:24:44;4.30;;;3.50;;
579;SDS011;276;48.392;9.950;2023-07-22T01:27:11;4.20;;;2.60;;
579;SDS011;276;48.392;9.950;2023-07-22T01:29:39;5.03;;;3.30;;
579;SDS011;276;48.392;9.950;2023-07-22T01:32:05;4.50;;;3.13;;
579;SDS011;276;48.392;9.950;2023-07-22T01:34:33;3.67;;;2.50;;
579;SDS011;276;48.392;9.950;2023-07-22T01:37:01;2.83;;;2.63;;
579;SDS011;276;48.392;9.950;2023-07-22T01:39:29;6.93;;;3.10;;
579;SDS011;276;48.392;9.950;2023-07-22T01:41:55;2.60;;;2.30;;
579;SDS011;276;48.392;9.950;2023-07-22T01:44:23;3.13;;;2.90;;
579;SDS011;276;48.392;9.950;2023-07-22T01:46:48;2.87;;;2.67;;
579;SDS011;276;48.392;9.950;2023-07-22T01:49:14;7.23;;;3.10;;
579;SDS011;276;48.392;9.950;2023-07-22T01:51:40;4.33;;;2.70;;
579;SDS011;276;48.392;9.950;2023-07-22T01:54:05;3.50;;;3.13;;
579;SDS011;276;48.392;9.950;2023-07-22T01:56:31;3.60;;;2.30;;
579;SDS011;276;48.392;9.950;2023-07-22T01:58:57;3.13;;;2.50;;
579;SDS011;276;48.392;9.950;2023-07-22T02:01:25;2.57;;;2.37;;
579;SDS011;276;48.392;9.950;2023-07-22T02:03:54;3.40;;;2.23;;
579;SDS011;276;48.392;9.950;2023-07-22T02:06:20;5.40;;;2.90;;
579;SDS011;276;48.392;9.950;2023-07-22T02:08:46;6.20;;;2.80;;
579;SDS011;276;48.392;9.950;2023-07-22T02:11:14;5.67;;;3.00;;
579;SDS011;276;48.392;9.950;2023-07-22T02:13:40;3.73;;;3.00;;
579;SDS011;276;48.392;9.950;2023-07-22T02:16:08;5.70;;;3.30;;
579;SDS011;276;48.392;9.950;2023-07-22T02:18:36;5.63;;;2.73;;
579;SDS011;276;48.392;9.950;2023-07-22T02:21:02;3.80;;;2.40;;
579;SDS011;276;48.392;9.950;2023-07-22T02:23:29;3.20;;;2.90;;
579;SDS011;276;48.392;9.950;2023-07-22T02:25:55;3.00;;;2.53;;
579;SDS011;276;48.392;9.950;2023-07-22T02:28:21;6.00;;;2.70;;
579;SDS011;276;48.392;9.950;2023-07-22T02:30:48;4.20;;;2.50;;
579;SDS011;276;48.392;9.950;2023-07-22T02:33:15;3.70;;;3.20;;
579;SDS011;276;48.392;9.950;2023-07-22T02:35:43;3.17;;;2.50;;
579;SDS011;276;48.392;9.950;2023-07-22T02:38:09;3.40;;;2.80;;
579;SDS011;276;48.392;9.950;2023-07-22T02:40:35;2.80;;;2.30;;
579;SDS011;276;48.392;9.950;2023-07-22T02:43:03;3.40;;;3.10;;
579;SDS011;276;48.392;9.950;2023-07-22T02:45:30;3.27;;;2.83;;
579;SDS011;276;48.392;9.950;2023-07-22T02:47:56;3.70;;;2.80;;
579;SDS011;276;48.392;9.950;2023-07-22T02:50:21;3.10;;;2.67;;
579;SDS011;276;48.392;9.950;2023-07-22T02:52:47;4.40;;;2.60;;
579;SDS011;276;48.392;9.950;2023-07-22T02:55:13;3.10;;;2.80;;
579;SDS011;276;48.392;9.950;2023-07-22T02:57:44;3.23;;;2.60;;
579;SDS011;276;48.392;9.950;2023-07-22T03:00:11;4.30;;;2.70;;
579;SDS011;276;48.392;9.950;2023-07-22T03:02:42;3.80;;;2.50;;
579;SDS011;276;48.392;9.950;2023-07-22T03:05:08;2.93;;;2.20;;
579;SDS011;276;48.392;9.950;2023-07-22T03:07:35;4.43;;;2.57;;
579;SDS011;276;48.392;9.950;2023-07-22T03:10:02;2.90;;;2.70;;
579;SDS011;276;48.392;9.950;2023-07-22T03:12:28;3.10;;;2.43;;
579;SDS011;276;48.392;9.950;2023-07-22T03:14:58;2.80;;;2.60;;
579;SDS011;276;48.392;9.950;2023-07-22T03:17:24;3.70;;;2.17;;
579;SDS011;276;48.392;9.950;2023-07-22T03:19:54;3.03;;;2.60;;
579;SDS011;276;48.392;9.950;2023-07-22T03:22:20;3.10;;;2.30;;
579;SDS011;276;48.392;9.950;2023-07-22T03:24:45;2.83;;;2.40;;
579;SDS011;276;48.392;9.950;2023-07-22T03:27:12;2.77;;;2.57;;
579;SDS011;276;48.392;9.950;2023-07-22T03:29:39;3.00;;;2.70;;
579;SDS011;276;48.392;9.950;2023-07-22T03:32:05;3.27;;;2.20;;
579;SDS011;276;48.392;9.950;2023-07-22T03:34:31;4.07;;;2.40;;
579;SDS011;276;48.392;9.950;2023-07-22T03:36:57;3.50;;;2.63;;
579;SDS011;276;48.392;9.950;2023-07-22T03:39:23;4.10;;;3.07;;
579;SDS011;276;48.392;9.950;2023-07-22T03:41:49;3.37;;;3.07;;
579;SDS011;276;48.392;9.950;2023-07-22T03:44:15;3.43;;;3.13;;
579;SDS011;276;48.392;9.950;2023-07-22T03:46:41;7.43;;;2.60;;
579;SDS011;276;48.392;9.950;2023-07-22T03:49:06;4.30;;;2.73;;
579;SDS011;276;48.392;9.950;2023-07-22T03:51:32;3.13;;;2.83;;
579;SDS011;276;48.392;9.950;2023-07-22T03:53:58;3.40;;;2.80;;
579;SDS011;276;48.392;9.950;2023-07-22T03:56:26;2.27;;;2.17;;
579;SDS011;276;48.392;9.950;2023-07-22T03:58:52;4.70;;;2.43;;
579;SDS011;276;48.392;9.950;2023-07-22T04:01:18;5.53;;;2.73;;
579;SDS011;276;48.392;9.950;2023-07-22T04:03:44;3.60;;;2.53;;
579;SDS011;276;48.392;9.950;2023-07-22T04:06:10;5.37;;;2.97;;
579;SDS011;276;48.392;9.950;2023-07-22T04:08:35;5.37;;;2.80;;
579;SDS011;276;48.392;9.950;2023-07-22T04:11:01;4.40;;;2.60;;
579;SDS011;276;48.392;9.950;2023-07-22T04:13:31;3.20;;;2.90;;
579;SDS011;276;48.392;9.950;2023-07-22T04:15:57;3.70;;;3.33;;
579;SDS011;276;48.392;9.950;2023-07-22T04:18:22;5.47;;;3.40;;
579;SDS011;276;48.392;9.950;2023-07-22T04:20:48;4.63;;;2.60;;
579;SDS011;276;48.392;9.950;2023-07-22T04:23:23;2.90;;;2.63;;
579;SDS011;276;48.392;9.950;2023-07-22T04:25:49;2.40;;;2.23;;
579;SDS011;276;48.392;9.950;2023-07-22T04:28:14;4.53;;;2.47;;
579;SDS011;276;48.392;9.950;2023-07-22T04:30:40;4.67;;;3.00;;
579;SDS011;276;48.392;9.950;2023-07-22T04:33:06;3.30;;;3.00;;
579;SDS011;276;48.392;9.950;2023-07-22T04:35:36;4.30;;;2.63;;
579;SDS011;276;48.392;9.950;2023-07-22T04:38:02;5.77;;;2.57;;
579;SDS011;276;48.392;9.950;2023-07-22T04:40:31;2.90;;;2.70;;
579;SDS011;276;48.392;9.950;2023-07-22T04:42:57;3.07;;;2.60;;
579;SDS011;276;48.392;9.950;2023-07-22T04:45:22;3.30;;;3.00;;
579;SDS011;276;48.392;9.950;2023-07-22T04:47:49;3.37;;;3.07;;
579;SDS011;276;48.392;9.950;2023-07-22T04:50:18;4.90;;;3.40;;
579;SDS011;276;48.392;9.950;2023-07-22T04:52:46;3.60;;;3.27;;
579;SDS011;276;48.392;9.950;2023-07-22T04:55:13;6.40;;;3.57;;
579;SDS011;276;48.392;9.950;2023-07-22T04:57:40;3.87;;;2.53;;
579;SDS011;276;48.392;9.950;2023-07-22T05:00:07;3.80;;;2.60;;
579;SDS011;276;48.392;9.950;2023-07-22T05:02:41;6.73;;;2.80;;
579;SDS011;276;48.392;9.950;2023-07-22T05:05:13;3.00;;;2.70;;
579;SDS011;276;48.392;9.950;2023-07-22T05:07:39;3.20;;;2.70;;
579;SDS011;276;48.392;9.950;2023-07-22T05:10:06;4.90;;;2.80;;
579;SDS011;276;48.392;9.950;2023-07-22T05:12:37;3.00;;;2.73;;
579;SDS011;276;48.392;9.950;2023-07-22T05:15:03;4.10;;;2.57;;
579;SDS011;276;48.392;9.950;2023-07-22T05:17:29;2.67;;;2.07;;
579;SDS011;276;48.392;9.950;2023-07-22T05:19:59;2.60;;;2.40;;
579;SDS011;276;48.392;9.950;2023-07-22T05:22:25;5.60;;;3.10;;
579;SDS011;276;48.392;9.950;2023-07-22T05:24:51;2.17;;;1.93;;
579;SDS011;276;48.392;9.950;2023-07-22T05:27:17;3.20;;;2.93;;
579;SDS011;276;48.392;9.950;2023-07-22T05:29:43;4.03;;;2.30;;
579;SDS011;276;48.392;9.950;2023-07-22T05:32:10;2.00;;;1.87;;
579;SDS011;276;48.392;9.950;2023-07-22T05:34:38;3.77;;;2.30;;
579;SDS011;276;48.392;9.950;2023-07-22T05:37:03;2.90;;;2.50;;
579;SDS011;276;48.392;9.950;2023-07-22T05:39:32;2.70;;;2.50;;
579;SDS011;276;48.392;9.950;2023-07-22T05:42:00;5.23;;;3.27;;
579;SDS011;276;48.392;9.950;2023-07-22T05:44:25;4.53;;;2.83;;
579;SDS011;276;48.392;9.950;2023-07-22T05:46:56;3.27;;;2.97;;
579;SDS011;276;48.392;9.950;2023-07-22T05:49:22;2.83;;;2.63;;
579;SDS011;276;48.392;9.950;2023-07-22T05:51:50;3.40;;;3.10;;
579;SDS011;276;48.392;9.950;2023-07-22T05:54:15;2.80;;;2.60;;
579;SDS011;276;48.392;9.950;2023-07-22T05:56:41;3.03;;;2.73;;
579;SDS011;276;48.392;9.950;2023-07-22T05:59:09;4.90;;;2.70;;
579;SDS011;276;48.392;9.950;2023-07-22T06:01:35;5.77;;;3.50;;
579;SDS011;276;48.392;9.950;2023-07-22T06:04:02;5.33;;;4.83;;
579;SDS011;276;48.392;9.950;2023-07-22T06:06:28;8.90;;;8.10;;
579;SDS011;276;48.392;9.950;2023-07-22T06:08:54;8.77;;;7.97;;
579;SDS011;276;48.392;9.950;2023-07-22T06:11:22;9.40;;;8.03;;
579;SDS011;276;48.392;9.950;2023-07-22T06:13:48;10.30;;;8.80;;
579;SDS011;276;48.392;9.950;2023-07-22T06:16:15;8.20;;;6.43;;
579;SDS011;276;48.392;9.950;2023-07-22T06:18:42;5.93;;;5.40;;
579;SDS011;276;48.392;9.950;2023-07-22T06:21:10;5.43;;;4.50;;
579;SDS011;276;48.392;9.950;2023-07-22T06:23:35;3.63;;;3.33;;
579;SDS011;276;48.392;9.950;2023-07-22T06:26:02;4.60;;;4.20;;
579;SDS011;276;48.392;9.950;2023-07-22T06:28:27;4.30;;;2.90;;
579;SDS011;276;48.392;9.950;2023-07-22T06:30:53;3.00;;;2.80;;
579;SDS011;276;48.392;9.950;2023-07-22T06:33:18;4.27;;;2.83;;
579;SDS011;276;48.392;9.950;2023-07-22T06:35:44;5.37;;;2.53;;
579;SDS011;276;48.392;9.950;2023-07-22T06:38:10;3.30;;;2.27;;
579;SDS011;276;48.392;9.950;2023-07-22T06:40:35;4.33;;;3.30;;
579;SDS011;276;48.392;9.950;2023-07-22T06:43:01;2.40;;;2.20;;
579;SDS011;276;48.392;9.950;2023-07-22T06:45:29;2.50;;;2.40;;
579;SDS011;276;48.392;9.950;2023-07-22T06:47:54;3.50;;;3.20;;
579;SDS011;276;48.392;9.950;2023-07-22T06:50:20;2.43;;;2.23;;
579;SDS011;276;48.392;9.950;2023-07-22T06:52:50;2.60;;;2.40;;
579;SDS011;276;48.392;9.950;2023-07-22T06:55:16;2.97;;;2.73;;
579;SDS011;276;48.392;9.950;2023-07-22T06:57:41;4.10;;;3.43;;
579;SDS011;276;48.392;9.950;2023-07-22T07:00:14;3.27;;;2.97;;
579;SDS011;276;48.392;9.950;2023-07-22T07:02:40;3.00;;;2.80;;
579;SDS011;276;48.392;9.950;2023-07-22T07:05:06;2.90;;;2.50;;
579;SDS011;276;48.392;9.950;2023-07-22T07:07:32;4.10;;;2.90;;
579;SDS011;276;48.392;9.950;2023-07-22T07:10:02;3.63;;;3.10;;
579;SDS011;276;48.392;9.950;2023-07-22T07:12:30;4.00;;;3.13;;
579;SDS011;276;48.392;9.950;2023-07-22T07:14:58;3.47;;;3.10;;
579;SDS011;276;48.392;9.950;2023-07-22T07:17:24;4.00;;;2.80;;
579;SDS011;276;48.392;9.950;2023-07-22T07:19:52;3.97;;;2.43;;
579;SDS011;276;48.392;9.950;2023-07-22T07:22:18;3.13;;;2.83;;
579;SDS011;276;48.392;9.950;2023-07-22T07:24:48;3.53;;;3.10;;
579;SDS011;276;48.392;9.950;2023-07-22T07:27:14;2.97;;;2.60;;
579;SDS011;276;48.392;9.950;2023-07-22T07:29:42;3.03;;;2.80;;
579;SDS011;276;48.392;9.950;2023-07-22T07:32:07;6.60;;;3.07;;
579;SDS011;276;48.392;9.950;2023-07-22T07:34:33;2.77;;;2.57;;
579;SDS011;276;48.392;9.950;2023-07-22T07:37:01;3.57;;;3.03;;
579;SDS011;276;48.392;9.950;2023-07-22T07:39:29;4.07;;;3.07;;
579;SDS011;276;48.392;9.950;2023-07-22T07:41:54;5.63;;;3.50;;
579;SDS011;276;48.392;9.950;2023-07-22T07:44:20;3.47;;;3.17;;
579;SDS011;276;48.392;9.950;2023-07-22T07:46:46;7.03;;;4.23;;
579;SDS011;276;48.392;9.950;2023-07-22T07:49:11;3.20;;;2.90;;
579;SDS011;276;48.392;9.950;2023-07-22T07:51:37;2.83;;;2.60;;
579;SDS011;276;48.392;9.950;2023-07-22T07:54:02;3.87;;;2.80;;
579;SDS011;276;48.392;9.950;2023-07-22T07:56:32;2.73;;;2.43;;
579;SDS011;276;48.392;9.950;2023-07-22T07:58:57;2.77;;;2.57;;
579;SDS011;276;48.392;9.950;2023-07-22T08:01:23;3.47;;;2.70;;
579;SDS011;276;48.392;9.950;2023-07-22T08:03:51;2.93;;;2.67;;
579;SDS011;276;48.392;9.950;2023-07-22T08:06:19;2.33;;;2.13;;
579;SDS011;276;48.392;9.950;2023-07-22T08:08:44;2.30;;;2.10;;
579;SDS011;276;48.392;9.950;2023-07-22T08:11:11;3.57;;;2.17;;
579;SDS011;276;48.392;9.950;2023-07-22T08:13:38;2.43;;;2.20;;
579;SDS011;276;48.392;9.950;2023-07-22T08:16:05;2.40;;;2.20;;
579;SDS011;276;48.392;9.950;2023-07-22T08:18:35;2.80;;;1.80;;
579;SDS011;276;48.392;9.950;2023-07-22T08:21:01;2.00;;;1.90;;
579;SDS011;276;48.392;9.950;2023-07-22T08:23:34;2.50;;;1.90;;
579;SDS011;276;48.392;9.950;2023-07-22T08:26:04;1.90;;;1.80;;
579;SDS011;276;48.392;9.950;2023-07-22T08:28:33;2.23;;;2.03;;
579;SDS011;276;48.392;9.950;2023-07-22T08:30:59;1.83;;;1.70;;
579;SDS011;276;48.392;9.950;2023-07-22T08:33:25;2.03;;;1.77;;
579;SDS011;276;48.392;9.950;2023-07-22T08:35:53;1.87;;;1.77;;
579;SDS011;276;48.392;9.950;2023-07-22T08:38:22;2.13;;;1.70;;
579;SDS011;276;48.392;9.950;2023-07-22T08:40:50;2.37;;;1.90;;
579;SDS011;276;48.392;9.950;2023-07-22T08:43:16;2.87;;;2.10;;
579;SDS011;276;48.392;9.950;2023-07-22T08:45:48;2.47;;;2.00;;
579;SDS011;276;48.392;9.950;2023-07-22T08:48:17;2.50;;;2.00;;
579;SDS011;276;48.392;9.950;2023-07-22T08:53:17;3.30;;;1.53;;
579;SDS011;276;48.392;9.950;2023-07-22T08:55:46;2.00;;;1.67;;
579;SDS011;276;48.392;9.950;2023-07-22T08:58:17;2.10;;;1.93;;
579;SDS011;276;48.392;9.950;2023-07-22T09:00:43;2.60;;;2.23;;
579;SDS011;276;48.392;9.950;2023-07-22T09:03:09;2.10;;;1.90;;
579;SDS011;276;48.392;9.950;2023-07-22T09:05:38;2.40;;;2.10;;
579;SDS011;276;48.392;9.950;2023-07-22T09:08:06;2.67;;;2.00;;
579;SDS011;276;48.392;9.950;2023-07-22T09:10:34;3.60;;;2.10;;
579;SDS011;276;48.392;9.950;2023-07-22T09:13:02;2.53;;;1.60;;
579;SDS011;276;48.392;9.950;2023-07-22T09:15:28;3.00;;;2.70;;
579;SDS011;276;48.392;9.950;2023-07-22T09:17:56;4.23;;;3.03;;
579;SDS011;276;48.392;9.950;2023-07-22T09:20:21;1.90;;;1.80;;
579;SDS011;276;48.392;9.950;2023-07-22T09:22:49;3.23;;;1.83;;
579;SDS011;276;48.392;9.950;2023-07-22T09:27:46;3.53;;;2.03;;
579;SDS011;276;48.392;9.950;2023-07-22T09:30:25;2.00;;;1.83;;
579;SDS011;276;48.392;9.950;2023-07-22T09:32:51;2.70;;;2.10;;
579;SDS011;276;48.392;9.950;2023-07-22T09:35:18;2.30;;;2.10;;
579;SDS011;276;48.392;9.950;2023-07-22T09:37:44;2.00;;;1.90;;
579;SDS011;276;48.392;9.950;2023-07-22T09:40:17;2.10;;;2.00;;
579;SDS011;276;48.392;9.950;2023-07-22T09:42:45;1.60;;;1.50;;
579;SDS011;276;48.392;9.950;2023-07-22T09:45:14;2.30;;;2.10;;
579;SDS011;276;48.392;9.950;2023-07-22T09:47:40;2.13;;;1.73;;
579;SDS011;276;48.392;9.950;2023-07-22T09:50:09;2.00;;;1.90;;
579;SDS011;276;48.392;9.950;2023-07-22T09:52:43;2.37;;;2.17;;
579;SDS011;276;48.392;9.950;2023-07-22T09:55:13;2.40;;;2.20;;
579;SDS011;276;48.392;9.950;2023-07-22T09:57:43;3.20;;;2.60;;
579;SDS011;276;48.392;9.950;2023-07-22T10:00:13;2.50;;;2.30;;
579;SDS011;276;48.392;9.950;2023-07-22T10:02:41;1.77;;;1.67;;
579;SDS011;276;48.392;9.950;2023-07-22T10:05:12;3.90;;;3.60;;
579;SDS011;276;48.392;9.950;2023-07-22T10:07:46;2.40;;;2.20;;
579;SDS011;276;48.392;9.950;2023-07-22T10:10:21;6.10;;;5.60;;
579;SDS011;276;48.392;9.950;2023-07-22T10:12:53;4.70;;;4.20;;
579;SDS011;276;48.392;9.950;2023-07-22T10:15:22;3.40;;;3.10;;
579;SDS011;276;48.392;9.950;2023-07-22T10:17:50;2.90;;;2.70;;
579;SDS011;276;48.392;9.950;2023-07-22T10:20:20;2.47;;;2.27;;
579;SDS011;276;48.392;9.950;2023-07-22T10:22:47;5.60;;;5.13;;
579;SDS011;276;48.392;9.950;2023-07-22T10:25:15;2.97;;;2.77;;
579;SDS011;276;48.392;9.950;2023-07-22T10:27:47;4.30;;;2.00;;
579;SDS011;276;48.392;9.950;2023-07-22T10:30:17;2.00;;;1.80;;
579;SDS011;276;48.392;9.950;2023-07-22T10:32:51;2.60;;;2.40;;
579;SDS011;276;48.392;9.950;2023-07-22T10:37:55;2.50;;;2.30;;
579;SDS011;276;48.392;9.950;2023-07-22T10:40:31;2.70;;;2.20;;
579;SDS011;276;48.392;9.950;2023-07-22T10:43:03;2.73;;;2.53;;
579;SDS011;276;48.392;9.950;2023-07-22T10:48:03;2.30;;;2.17;;
579;SDS011;276;48.392;9.950;2023-07-22T10:50:47;2.40;;;2.20;;
579;SDS011;276;48.392;9.950;2023-07-22T11:14:31;2.07;;;1.80;;
579;SDS011;276;48.392;9.950;2023-07-22T11:17:02;2.60;;;2.40;;
579;SDS011;276;48.392;9.950;2023-07-22T11:19:33;2.07;;;1.97;;
579;SDS011;276;48.392;9.950;2023-07-22T11:22:01;2.87;;;2.20;;
579;SDS011;276;48.392;9.950;2023-07-22T11:24:27;3.70;;;2.13;;
579;SDS011;276;48.392;9.950;2023-07-22T11:26:57;2.00;;;1.90;;
579;SDS011;276;48.392;9.950;2023-07-22T11:29:22;2.10;;;2.00;;
579;SDS011;276;48.392;9.950;2023-07-22T11:31:50;2.43;;;1.80;;
579;SDS011;276;48.392;9.950;2023-07-22T11:34:17;2.53;;;2.23;;
579;SDS011;276;48.392;9.950;2023-07-22T11:36:49;2.03;;;1.80;;
579;SDS011;276;48.392;9.950;2023-07-22T11:39:17;1.97;;;1.87;;
579;SDS011;276;48.392;9.950;2023-07-22T11:41:47;1.70;;;1.60;;
579;SDS011;276;48.392;9.950;2023-07-22T11:44:14;2.07;;;1.87;;
579;SDS011;276;48.392;9.950;2023-07-22T11:46:55;2.57;;;2.37;;
579;SDS011;276;48.392;9.950;2023-07-22T11:51:58;2.07;;;1.97;;
579;SDS011;276;48.392;9.950;2023-07-22T11:54:40;2.47;;;2.37;;
579;SDS011;276;48.392;9.950;2023-07-22T11:57:17;4.03;;;3.73;;
579;SDS011;276;48.392;9.950;2023-07-22T11:59:50;2.57;;;2.37;;
579;SDS011;276;48.392;9.950;2023-07-22T12:02:23;2.10;;;1.90;;
579;SDS011;276;48.392;9.950;2023-07-22T12:04:55;2.27;;;2.07;;
579;SDS011;276;48.392;9.950;2023-07-22T12:07:29;2.10;;;1.73;;
579;SDS011;276;48.392;9.950;2023-07-22T12:09:59;2.00;;;1.90;;
579;SDS011;276;48.392;9.950;2023-07-22T12:12:37;1.90;;;1.80;;
579;SDS011;276;48.392;9.950;2023-07-22T12:20:25;1.83;;;1.73;;
579;SDS011;276;48.392;9.950;2023-07-22T12:22:53;2.60;;;2.40;;
579;SDS011;276;48.392;9.950;2023-07-22T12:25:22;2.13;;;1.60;;
579;SDS011;276;48.392;9.950;2023-07-22T12:27:48;2.63;;;1.90;;
579;SDS011;276;48.392;9.950;2023-07-22T12:30:14;2.00;;;1.90;;
579;SDS011;276;48.392;9.950;2023-07-22T12:32:42;1.97;;;1.80;;
579;SDS011;276;48.392;9.950;2023-07-22T12:35:08;2.80;;;2.60;;
579;SDS011;276;48.392;9.950;2023-07-22T12:37:38;2.43;;;2.23;;
579;SDS011;276;48.392;9.950;2023-07-22T12:40:07;2.83;;;2.63;;
579;SDS011;276;48.392;9.950;2023-07-22T12:42:36;3.20;;;3.00;;
579;SDS011;276;48.392;9.950;2023-07-22T12:45:02;2.70;;;2.00;;
579;SDS011;276;48.392;9.950;2023-07-22T12:47:29;2.80;;;2.60;;
579;SDS011;276;48.392;9.950;2023-07-22T12:49:55;2.43;;;2.23;;
579;SDS011;276;48.392;9.950;2023-07-22T12:52:20;2.47;;;2.27;;
579;SDS011;276;48.392;9.950;2023-07-22T12:54:48;3.00;;;2.10;;
579;SDS011;276;48.392;9.950;2023-07-22T12:57:14;2.07;;;1.73;;
579;SDS011;276;48.392;9.950;2023-07-22T12:59:39;3.10;;;2.90;;
579;SDS011;276;48.392;9.950;2023-07-22T13:02:06;2.63;;;2.43;;
579;SDS011;276;48.392;9.950;2023-07-22T13:04:31;3.03;;;2.73;;
579;SDS011;276;48.392;9.950;2023-07-22T13:06:57;2.30;;;2.10;;
579;SDS011;276;48.392;9.950;2023-07-22T13:09:27;2.83;;;2.63;;
579;SDS011;276;48.392;9.950;2023-07-22T13:11:52;2.30;;;2.10;;
579;SDS011;276;48.392;9.950;2023-07-22T13:14:20;2.27;;;1.97;;
579;SDS011;276;48.392;9.950;2023-07-22T13:16:46;2.20;;;2.10;;
579;SDS011;276;48.392;9.950;2023-07-22T13:19:12;2.30;;;2.10;;
579;SDS011;276;48.392;9.950;2023-07-22T13:21:37;2.20;;;2.07;;
579;SDS011;276;48.392;9.950;2023-07-22T13:24:08;3.00;;;2.80;;
579;SDS011;276;48.392;9.950;2023-07-22T13:26:34;2.73;;;2.53;;
579;SDS011;276;48.392;9.950;2023-07-22T13:29:00;3.20;;;2.90;;
579;SDS011;276;48.392;9.950;2023-07-22T13:31:25;2.80;;;2.60;;
579;SDS011;276;48.392;9.950;2023-07-22T13:33:53;3.90;;;2.87;;
579;SDS011;276;48.392;9.950;2023-07-22T13:36:21;3.53;;;3.23;;
579;SDS011;276;48.392;9.950;2023-07-22T13:38:49;2.70;;;2.50;;
579;SDS011;276;48.392;9.950;2023-07-22T13:41:15;2.60;;;2.40;;
579;SDS011;276;48.392;9.950;2023-07-22T13:43:41;2.77;;;2.57;;
579;SDS011;276;48.392;9.950;2023-07-22T13:46:09;3.53;;;3.23;;
579;SDS011;276;48.392;9.950;2023-07-22T13:48:34;3.10;;;2.80;;
579;SDS011;276;48.392;9.950;2023-07-22T13:51:04;3.50;;;3.20;;
579;SDS011;276;48.392;9.950;2023-07-22T13:53:30;3.40;;;3.20;;
579;SDS011;276;48.392;9.950;2023-07-22T13:55:56;2.83;;;2.63;;
579;SDS011;276;48.392;9.950;2023-07-22T13:58:23;3.20;;;3.00;;
579;SDS011;276;48.392;9.950;2023-07-22T14:00:51;3.20;;;2.80;;
579;SDS011;276;48.392;9.950;2023-07-22T14:03:17;4.53;;;3.23;;
579;SDS011;276;48.392;9.950;2023-07-22T14:05:42;3.20;;;3.00;;
579;SDS011;276;48.392;9.950;2023-07-22T14:08:11;4.23;;;2.90;;
579;SDS011;276;48.392;9.950;2023-07-22T14:10:36;2.43;;;2.10;;
579;SDS011;276;48.392;9.950;2023-07-22T14:13:02;2.67;;;2.47;;
579;SDS011;276;48.392;9.950;2023-07-22T14:15:28;2.70;;;2.43;;
579;SDS011;276;48.392;9.950;2023-07-22T14:17:56;5.77;;;2.67;;
579;SDS011;276;48.392;9.950;2023-07-22T14:20:22;2.73;;;2.53;;
579;SDS011;276;48.392;9.950;2023-07-22T14:22:48;3.93;;;3.43;;
579;SDS011;276;48.392;9.950;2023-07-22T14:25:15;4.30;;;4.00;;
579;SDS011;276;48.392;9.950;2023-07-22T14:27:41;6.43;;;3.17;;
579;SDS011;276;48.392;9.950;2023-07-22T14:30:09;2.87;;;2.67;;
579;SDS011;276;48.392;9.950;2023-07-22T14:32:35;2.60;;;2.40;;
579;SDS011;276;48.392;9.950;2023-07-22T14:35:03;3.33;;;3.10;;
579;SDS011;276;48.392;9.950;2023-07-22T14:37:29;2.57;;;2.37;;
579;SDS011;276;48.392;9.950;2023-07-22T14:39:55;3.13;;;2.83;;
579;SDS011;276;48.392;9.950;2023-07-22T14:42:23;3.00;;;2.70;;
579;SDS011;276;48.392;9.950;2023-07-22T14:44:49;3.07;;;2.83;;
579;SDS011;276;48.392;9.950;2023-07-22T14:47:14;3.03;;;2.73;;
579;SDS011;276;48.392;9.950;2023-07-22T14:49:42;4.00;;;3.37;;
579;SDS011;276;48.392;9.950;2023-07-22T14:52:08;2.80;;;2.60;;
579;SDS011;276;48.392;9.950;2023-07-22T14:54:33;3.03;;;2.83;;
579;SDS011;276;48.392;9.950;2023-07-22T14:57:01;2.97;;;2.43;;
579;SDS011;276;48.392;9.950;2023-07-22T14:59:27;3.00;;;2.53;;
579;SDS011;276;48.392;9.950;2023-07-22T15:01:53;3.20;;;2.67;;
579;SDS011;276;48.392;9.950;2023-07-22T15:04:21;2.63;;;2.43;;
579;SDS011;276;48.392;9.950;2023-07-22T15:06:47;3.10;;;2.90;;
579;SDS011;276;48.392;9.950;2023-07-22T15:09:15;2.93;;;2.57;;
579;SDS011;276;48.392;9.950;2023-07-22T15:11:45;2.87;;;2.67;;
579;SDS011;276;48.392;9.950;2023-07-22T15:14:11;3.00;;;2.60;;
579;SDS011;276;48.392;9.950;2023-07-22T15:16:36;3.17;;;2.87;;
579;SDS011;276;48.392;9.950;2023-07-22T15:19:02;3.33;;;3.10;;
579;SDS011;276;48.392;9.950;2023-07-22T15:21:30;3.30;;;3.00;;
579;SDS011;276;48.392;9.950;2023-07-22T15:23:58;2.80;;;2.60;;
579;SDS011;276;48.392;9.950;2023-07-22T15:26:26;5.13;;;3.30;;
579;SDS011;276;48.392;9.950;2023-07-22T15:28:52;3.10;;;2.90;;
579;SDS011;276;48.392;9.950;2023-07-22T15:31:18;3.70;;;3.40;;
579;SDS011;276;48.392;9.950;2023-07-22T15:33:44;3.80;;;3.50;;
579;SDS011;276;48.392;9.950;2023-07-22T15:36:10;3.20;;;2.97;;
579;SDS011;276;48.392;9.950;2023-07-22T15:38:40;3.00;;;2.80;;
579;SDS011;276;48.392;9.950;2023-07-22T15:41:08;4.07;;;3.20;;
579;SDS011;276;48.392;9.950;2023-07-22T15:43:35;3.70;;;2.97;;
579;SDS011;276;48.392;9.950;2023-07-22T15:46:00;4.17;;;2.70;;
579;SDS011;276;48.392;9.950;2023-07-22T15:48:26;4.57;;;4.17;;
579;SDS011;276;48.392;9.950;2023-07-22T15:50:52;5.17;;;4.77;;
579;SDS011;276;48.392;9.950;2023-07-22T15:53:20;4.30;;;3.43;;
579;SDS011;276;48.392;9.950;2023-07-22T15:55:46;4.10;;;3.80;;
579;SDS011;276;48.392;9.950;2023-07-22T15:58:12;4.00;;;3.60;;
579;SDS011;276;48.392;9.950;2023-07-22T16:00:42;4.57;;;4.17;;
579;SDS011;276;48.392;9.950;2023-07-22T16:03:10;4.57;;;4.13;;
579;SDS011;276;48.392;9.950;2023-07-22T16:05:37;4.70;;;4.30;;
579;SDS011;276;48.392;9.950;2023-07-22T16:08:03;4.03;;;3.73;;
579;SDS011;276;48.392;9.950;2023-07-22T16:10:33;3.90;;;3.50;;
579;SDS011;276;48.392;9.950;2023-07-22T16:12:59;3.03;;;2.77;;
579;SDS011;276;48.392;9.950;2023-07-22T16:15:25;4.03;;;3.70;;
579;SDS011;276;48.392;9.950;2023-07-22T16:17:50;4.00;;;3.70;;
579;SDS011;276;48.392;9.950;2023-07-22T16:20:16;4.93;;;4.43;;
579;SDS011;276;48.392;9.950;2023-07-22T16:22:43;5.43;;;3.80;;
579;SDS011;276;48.392;9.950;2023-07-22T16:25:09;4.20;;;3.90;;